Time;durP1;ratioP1;P1;durP2;ratioP2;P2;SDS_P1;SDS_P2;PMS_P1;PMS_P2;Temp;Humidity;BMP_temperature;BMP_pressure;BME280_temperature;BME280_humidity;BME280_pressure;Samples;Min_cycle;Max_cycle;Signal;HPM_P1;HPM_P2
2024/04/14 00:02:10;;;;;;;;;;;16.30;99.90;;;;;;5446328;26;19941;-72
2024/04/14 00:04:36;;;;;;;;;;;16.30;99.90;;;;;;5452413;26;20273;-71
2024/04/14 00:07:02;;;;;;;;;;;16.20;99.90;;;;;;5453024;26;19940;-72
2024/04/14 00:09:27;;;;;;;;;;;16.10;99.90;;;;;;5453213;26;19997;-71
2024/04/14 00:11:53;;;;;;;;;;;16.10;99.90;;;;;;5452600;26;19935;-72
2024/04/14 00:14:19;;;;;;;;;;;16.10;99.90;;;;;;5451539;26;19998;-72
2024/04/14 00:16:44;;;;;;;;;;;16.00;99.90;;;;;;5452509;26;19928;-71
2024/04/14 00:19:10;;;;;;;;;;;16.00;99.90;;;;;;5469852;26;19932;-71
2024/04/14 00:21:35;;;;;;;;;;;16.10;99.90;;;;;;5458688;26;19928;-72
2024/04/14 00:24:01;;;;;;;;;;;16.10;99.90;;;;;;5452964;26;19998;-71
2024/04/14 00:26:27;;;;;;;;;;;16.10;99.90;;;;;;5451223;26;19940;-71
2024/04/14 00:28:52;;;;;;;;;;;15.90;99.90;;;;;;5450838;26;19929;-72
2024/04/14 00:31:18;;;;;;;;;;;15.90;99.90;;;;;;5453201;26;19928;-72
2024/04/14 00:33:43;;;;;;;;;;;15.90;99.90;;;;;;5453048;26;20533;-72
2024/04/14 00:36:09;;;;;;;;;;;15.80;99.90;;;;;;5450540;26;20002;-73
2024/04/14 00:38:34;;;;;;;;;;;15.70;99.90;;;;;;5451807;26;20258;-73
2024/04/14 00:41:00;;;;;;;;;;;15.70;99.90;;;;;;5461180;26;19947;-72
2024/04/14 00:43:26;;;;;;;;;;;15.60;99.90;;;;;;5453040;26;20367;-71
2024/04/14 00:45:52;;;;;;;;;;;15.50;99.90;;;;;;5451840;26;19929;-72
2024/04/14 00:48:18;;;;;;;;;;;15.50;99.90;;;;;;5468299;26;19932;-72
2024/04/14 00:50:45;;;;;;;;;;;15.50;99.90;;;;;;5460341;26;19935;-72
2024/04/14 00:53:11;;;;;;;;;;;15.50;99.90;;;;;;5453293;26;19936;-71
2024/04/14 00:55:37;;;;;;;;;;;15.30;99.90;;;;;;5449433;26;19982;-72
2024/04/14 00:58:03;;;;;;;;;;;15.30;99.90;;;;;;5450572;26;19928;-73
2024/04/14 01:00:29;;;;;;;;;;;15.30;99.90;;;;;;5451982;26;19936;-74
2024/04/14 01:02:55;;;;;;;;;;;15.30;99.90;;;;;;5452587;26;19978;-73
2024/04/14 01:05:21;;;;;;;;;;;15.20;99.90;;;;;;5451628;26;19928;-72
2024/04/14 01:07:47;;;;;;;;;;;15.20;99.90;;;;;;5452529;26;20370;-71
2024/04/14 01:10:12;;;;;;;;;;;15.20;99.90;;;;;;5474615;26;19928;-72
2024/04/14 01:12:38;;;;;;;;;;;15.20;99.90;;;;;;5451147;26;20000;-71
2024/04/14 01:15:03;;;;;;;;;;;15.10;99.90;;;;;;5451743;26;20337;-71
2024/04/14 01:17:29;;;;;;;;;;;15.10;99.90;;;;;;5444147;26;19936;-72
2024/04/14 01:19:54;;;;;;;;;;;15.00;99.90;;;;;;5442758;26;20371;-72
2024/04/14 01:22:20;;;;;;;;;;;15.10;99.90;;;;;;5450136;26;19932;-71
2024/04/14 01:24:46;;;;;;;;;;;15.00;99.90;;;;;;5448261;26;19956;-71
2024/04/14 01:27:12;;;;;;;;;;;14.90;99.90;;;;;;5451814;26;19936;-71
2024/04/14 01:29:39;;;;;;;;;;;14.90;99.90;;;;;;5450050;26;19936;-72
2024/04/14 01:32:04;;;;;;;;;;;14.80;99.90;;;;;;5468260;26;20363;-72
2024/04/14 01:34:30;;;;;;;;;;;14.80;99.90;;;;;;5457407;26;19928;-72
2024/04/14 01:36:55;;;;;;;;;;;14.70;99.90;;;;;;5467327;26;20367;-73
2024/04/14 01:39:20;;;;;;;;;;;14.60;99.90;;;;;;5458690;26;19940;-71
2024/04/14 01:41:46;;;;;;;;;;;14.50;99.90;;;;;;5450323;26;19997;-72
2024/04/14 01:44:13;;;;;;;;;;;14.50;99.90;;;;;;5451461;26;20286;-71
2024/04/14 01:46:39;;;;;;;;;;;14.40;99.90;;;;;;5451627;26;19936;-72
2024/04/14 01:49:04;;;;;;;;;;;14.40;99.90;;;;;;5459680;26;19928;-72
2024/04/14 01:51:30;;;;;;;;;;;14.50;99.90;;;;;;5480253;26;19928;-72
2024/04/14 01:53:55;;;;;;;;;;;14.40;99.90;;;;;;5457488;26;19935;-74
2024/04/14 01:56:21;;;;;;;;;;;14.40;99.90;;;;;;5487283;26;20209;-71
2024/04/14 01:58:46;;;;;;;;;;;14.20;99.90;;;;;;5463019;26;19929;-72
2024/04/14 02:01:12;;;;;;;;;;;14.20;99.90;;;;;;5471983;26;19935;-73
2024/04/14 02:03:41;;;;;;;;;;;14.10;99.90;;;;;;5449263;26;20001;-72
2024/04/14 02:06:07;;;;;;;;;;;14.10;99.90;;;;;;5450672;26;19948;-72
2024/04/14 02:08:32;;;;;;;;;;;14.00;99.90;;;;;;5451692;26;20356;-72
2024/04/14 02:10:59;;;;;;;;;;;14.00;99.90;;;;;;5452098;26;19935;-72
2024/04/14 02:13:25;;;;;;;;;;;14.00;99.90;;;;;;5449517;26;19937;-72
2024/04/14 02:15:50;;;;;;;;;;;14.00;99.90;;;;;;5452332;26;19993;-73
2024/04/14 02:18:16;;;;;;;;;;;14.00;99.90;;;;;;5450372;26;19929;-72
2024/04/14 02:20:41;;;;;;;;;;;13.90;99.90;;;;;;5450686;26;20330;-72
2024/04/14 02:23:07;;;;;;;;;;;14.00;99.90;;;;;;5453684;26;19928;-72
2024/04/14 02:25:32;;;;;;;;;;;13.90;99.90;;;;;;5455309;26;19928;-73
2024/04/14 02:27:58;;;;;;;;;;;13.90;99.90;;;;;;5454839;26;19929;-72
2024/04/14 02:30:23;;;;;;;;;;;13.80;99.90;;;;;;5454205;26;19960;-72
2024/04/14 02:32:49;;;;;;;;;;;13.70;99.90;;;;;;5452410;26;19965;-72
2024/04/14 02:35:16;;;;;;;;;;;13.70;99.90;;;;;;5451901;26;20001;-72
2024/04/14 02:37:41;;;;;;;;;;;13.60;99.90;;;;;;5454252;26;19948;-72
2024/04/14 02:40:07;;;;;;;;;;;13.60;99.90;;;;;;5453771;26;19938;-72
2024/04/14 02:42:36;;;;;;;;;;;13.60;99.90;;;;;;5449314;26;19933;-72
2024/04/14 02:45:01;;;;;;;;;;;13.60;99.90;;;;;;5470037;26;19964;-72
2024/04/14 02:47:27;;;;;;;;;;;13.50;99.90;;;;;;5464022;26;19994;-72
2024/04/14 02:49:52;;;;;;;;;;;13.40;99.90;;;;;;5453831;26;19960;-72
2024/04/14 02:52:18;;;;;;;;;;;13.30;99.90;;;;;;5454580;26;20312;-72
2024/04/14 02:54:44;;;;;;;;;;;13.20;99.90;;;;;;5454981;26;19929;-71
2024/04/14 02:57:09;;;;;;;;;;;13.20;99.90;;;;;;5455220;26;19957;-72
2024/04/14 02:59:35;;;;;;;;;;;13.30;99.90;;;;;;5451779;26;19928;-72
2024/04/14 03:02:00;;;;;;;;;;;13.30;99.90;;;;;;5454903;26;20314;-72
2024/04/14 03:04:26;;;;;;;;;;;13.20;99.90;;;;;;5452031;26;20325;-72
2024/04/14 03:06:54;;;;;;;;;;;13.00;99.90;;;;;;5453419;26;19932;-72
2024/04/14 03:09:20;;;;;;;;;;;13.10;99.90;;;;;;5450638;26;19955;-72
2024/04/14 03:11:45;;;;;;;;;;;13.00;99.90;;;;;;5452534;26;19932;-72
2024/04/14 03:14:11;;;;;;;;;;;12.90;99.90;;;;;;5453936;26;20663;-72
2024/04/14 03:16:36;;;;;;;;;;;13.00;99.90;;;;;;5448367;26;19998;-72
2024/04/14 03:19:02;;;;;;;;;;;12.90;99.90;;;;;;5454423;26;19928;-72
2024/04/14 03:21:27;;;;;;;;;;;12.90;99.90;;;;;;5451342;26;19997;-73
2024/04/14 03:23:53;;;;;;;;;;;12.80;99.90;;;;;;5467425;26;19938;-72
2024/04/14 03:26:18;;;;;;;;;;;12.80;99.90;;;;;;5455866;26;19998;-73
2024/04/14 03:28:44;;;;;;;;;;;12.90;99.90;;;;;;5451846;26;19940;-76
2024/04/14 03:31:09;;;;;;;;;;;12.90;99.90;;;;;;5452263;26;20253;-75
2024/04/14 03:33:35;;;;;;;;;;;12.90;99.90;;;;;;5451496;26;19959;-75
2024/04/14 03:36:09;;;;;;;;;;;13.00;99.90;;;;;;5452119;26;20047;-76
2024/04/14 03:38:35;;;;;;;;;;;12.90;99.90;;;;;;5467159;26;20237;-75
2024/04/14 03:41:01;;;;;;;;;;;12.80;99.90;;;;;;5444216;26;19936;-76
2024/04/14 03:43:27;;;;;;;;;;;12.70;99.90;;;;;;5450947;26;19943;-76
2024/04/14 03:45:52;;;;;;;;;;;12.70;99.90;;;;;;5452199;26;19928;-76
2024/04/14 03:48:19;;;;;;;;;;;12.70;99.90;;;;;;5453721;26;19929;-75
2024/04/14 03:50:45;;;;;;;;;;;12.70;99.90;;;;;;5452566;26;19935;-75
2024/04/14 03:53:11;;;;;;;;;;;12.80;99.90;;;;;;5453477;26;19936;-75
2024/04/14 03:55:36;;;;;;;;;;;12.80;99.90;;;;;;5454075;26;19936;-75
2024/04/14 03:58:02;;;;;;;;;;;12.70;99.90;;;;;;5444936;26;20271;-75
2024/04/14 04:00:27;;;;;;;;;;;12.60;99.90;;;;;;5443585;26;20026;-76
2024/04/14 04:02:53;;;;;;;;;;;12.50;99.90;;;;;;5453042;26;19928;-76
2024/04/14 04:05:18;;;;;;;;;;;12.40;99.90;;;;;;5448452;26;20360;-75
2024/04/14 04:07:47;;;;;;;;;;;12.40;99.90;;;;;;5453342;26;19997;-75
2024/04/14 04:10:12;;;;;;;;;;;12.50;99.90;;;;;;5448586;26;20012;-76
2024/04/14 04:12:38;;;;;;;;;;;12.50;99.90;;;;;;5453560;26;19941;-76
2024/04/14 04:15:03;;;;;;;;;;;12.60;99.90;;;;;;5452961;26;19997;-75
2024/04/14 04:17:29;;;;;;;;;;;12.60;99.90;;;;;;5456784;26;19929;-75
2024/04/14 04:19:54;;;;;;;;;;;12.60;99.90;;;;;;5449033;26;19928;-76
2024/04/14 04:22:20;;;;;;;;;;;12.60;99.90;;;;;;5457083;26;20445;-75
2024/04/14 04:24:45;;;;;;;;;;;12.50;99.90;;;;;;5454034;26;19998;-76
2024/04/14 04:27:11;;;;;;;;;;;12.50;99.90;;;;;;5451540;26;19940;-76
2024/04/14 04:29:37;;;;;;;;;;;12.40;99.90;;;;;;5448126;26;19936;-75
2024/04/14 04:32:03;;;;;;;;;;;12.40;99.90;;;;;;5464341;26;20370;-75
2024/04/14 04:34:28;;;;;;;;;;;12.40;99.90;;;;;;5459774;26;19929;-76
2024/04/14 04:36:54;;;;;;;;;;;12.40;99.90;;;;;;5467998;26;19934;-76
2024/04/14 04:39:19;;;;;;;;;;;12.50;99.90;;;;;;5460208;26;19964;-76
2024/04/14 04:41:45;;;;;;;;;;;12.50;99.90;;;;;;5453612;26;19928;-75
2024/04/14 04:44:11;;;;;;;;;;;12.50;99.90;;;;;;5453535;26;20065;-76
2024/04/14 04:46:37;;;;;;;;;;;12.50;99.90;;;;;;5450415;26;20280;-75
2024/04/14 04:49:03;;;;;;;;;;;12.50;99.90;;;;;;5445878;26;19935;-75
2024/04/14 04:51:28;;;;;;;;;;;12.50;99.90;;;;;;5459984;26;20315;-76
2024/04/14 04:53:54;;;;;;;;;;;12.50;99.90;;;;;;5450946;26;19953;-75
2024/04/14 04:56:19;;;;;;;;;;;12.60;99.90;;;;;;5451847;26;19992;-75
2024/04/14 04:58:45;;;;;;;;;;;12.80;99.90;;;;;;5451352;26;19936;-76
2024/04/14 05:01:13;;;;;;;;;;;12.70;99.90;;;;;;5450128;26;19929;-75
2024/04/14 05:03:39;;;;;;;;;;;12.70;99.90;;;;;;5450583;26;20027;-76
2024/04/14 05:06:05;;;;;;;;;;;12.70;99.90;;;;;;5451992;26;19928;-75
2024/04/14 05:08:33;;;;;;;;;;;12.60;99.90;;;;;;5450750;26;19928;-75
2024/04/14 05:10:59;;;;;;;;;;;12.60;99.90;;;;;;5452101;26;19943;-77
2024/04/14 05:13:25;;;;;;;;;;;12.60;99.90;;;;;;5449755;26;20060;-75
2024/04/14 05:15:51;;;;;;;;;;;12.60;99.90;;;;;;5451850;26;19936;-76
2024/04/14 05:18:16;;;;;;;;;;;12.60;99.90;;;;;;5452030;26;19978;-75
2024/04/14 05:20:42;;;;;;;;;;;12.80;99.90;;;;;;5450138;26;19977;-75
2024/04/14 05:23:08;;;;;;;;;;;12.80;99.90;;;;;;5449769;26;19932;-75
2024/04/14 05:25:34;;;;;;;;;;;12.80;99.90;;;;;;5444443;26;19968;-75
2024/04/14 05:28:01;;;;;;;;;;;12.90;99.90;;;;;;5440963;26;20195;-76
2024/04/14 05:30:27;;;;;;;;;;;12.90;99.90;;;;;;5448843;26;19944;-75
2024/04/14 05:32:52;;;;;;;;;;;13.00;99.90;;;;;;5451710;26;19961;-75
2024/04/14 05:35:18;;;;;;;;;;;13.00;99.90;;;;;;5450347;26;19936;-76
2024/04/14 05:37:43;;;;;;;;;;;13.10;99.90;;;;;;5452528;26;20318;-76
2024/04/14 05:40:09;;;;;;;;;;;13.20;99.90;;;;;;5451650;26;19928;-75
2024/04/14 05:42:35;;;;;;;;;;;13.20;99.90;;;;;;5451710;26;19928;-76
2024/04/14 05:45:00;;;;;;;;;;;13.30;99.90;;;;;;5445693;26;19929;-76
2024/04/14 05:47:26;;;;;;;;;;;13.40;99.90;;;;;;5452193;26;19928;-75
2024/04/14 05:49:52;;;;;;;;;;;13.40;99.90;;;;;;5448543;26;19935;-76
2024/04/14 05:52:17;;;;;;;;;;;13.50;99.90;;;;;;5445682;26;19936;-76
2024/04/14 05:54:42;;;;;;;;;;;13.50;99.90;;;;;;5444619;26;19936;-76
2024/04/14 05:57:08;;;;;;;;;;;13.60;99.90;;;;;;5448759;26;19929;-76
2024/04/14 05:59:34;;;;;;;;;;;13.70;99.90;;;;;;5446643;26;19936;-76
2024/04/14 06:01:59;;;;;;;;;;;13.80;99.90;;;;;;5451552;26;19952;-76
2024/04/14 06:04:25;;;;;;;;;;;13.90;99.90;;;;;;5443626;26;19929;-75
2024/04/14 06:06:50;;;;;;;;;;;13.90;99.90;;;;;;5440179;26;19928;-76
2024/04/14 06:09:16;;;;;;;;;;;14.00;99.90;;;;;;5429775;26;19936;-75
2024/04/14 06:11:41;;;;;;;;;;;14.00;99.90;;;;;;5451733;26;19928;-75
2024/04/14 06:14:07;;;;;;;;;;;14.10;99.90;;;;;;5459632;26;19935;-75
2024/04/14 06:16:32;;;;;;;;;;;14.20;99.90;;;;;;5450295;26;19928;-75
2024/04/14 06:18:58;;;;;;;;;;;14.30;99.90;;;;;;5448517;26;19928;-75
2024/04/14 06:21:23;;;;;;;;;;;14.50;99.90;;;;;;5451100;26;19936;-76
2024/04/14 06:23:49;;;;;;;;;;;14.60;99.90;;;;;;5449517;26;19935;-76
2024/04/14 06:26:14;;;;;;;;;;;14.70;99.90;;;;;;5449043;26;19938;-76
2024/04/14 06:28:40;;;;;;;;;;;14.70;99.90;;;;;;5442927;26;19941;-76
2024/04/14 06:31:05;;;;;;;;;;;14.80;99.90;;;;;;5441626;26;19929;-75
2024/04/14 06:33:31;;;;;;;;;;;14.90;99.90;;;;;;5449922;26;19929;-76
2024/04/14 06:35:57;;;;;;;;;;;15.00;99.90;;;;;;5451262;26;19978;-75
2024/04/14 06:38:23;;;;;;;;;;;15.00;99.90;;;;;;5449071;26;19936;-75
2024/04/14 06:40:49;;;;;;;;;;;15.10;99.90;;;;;;5448522;26;19928;-75
2024/04/14 06:43:15;;;;;;;;;;;15.30;99.90;;;;;;5424910;26;19929;-76
2024/04/14 06:45:41;;;;;;;;;;;15.40;99.90;;;;;;5443819;26;19960;-76
2024/04/14 06:48:07;;;;;;;;;;;15.50;99.90;;;;;;5457284;26;19929;-76
2024/04/14 06:50:33;;;;;;;;;;;15.70;99.90;;;;;;5448843;26;19929;-76
2024/04/14 06:52:59;;;;;;;;;;;15.80;99.90;;;;;;5451109;26;19935;-76
2024/04/14 06:55:24;;;;;;;;;;;15.80;99.90;;;;;;5438370;26;19928;-76
2024/04/14 06:57:50;;;;;;;;;;;15.90;99.90;;;;;;5450260;26;19957;-76
2024/04/14 07:00:15;;;;;;;;;;;16.00;99.90;;;;;;5449671;26;20017;-76
2024/04/14 07:02:41;;;;;;;;;;;16.00;99.90;;;;;;5443108;26;20378;-75
2024/04/14 07:05:06;;;;;;;;;;;16.00;99.90;;;;;;5439926;26;20363;-76
2024/04/14 07:07:32;;;;;;;;;;;16.10;99.90;;;;;;5448307;26;19929;-75
2024/04/14 07:09:57;;;;;;;;;;;16.40;99.90;;;;;;5443548;26;20322;-76
2024/04/14 07:12:23;;;;;;;;;;;16.70;99.90;;;;;;5438927;26;19929;-76
2024/04/14 07:14:49;;;;;;;;;;;17.00;99.90;;;;;;5454030;26;19932;-75
2024/04/14 07:17:14;;;;;;;;;;;17.30;99.90;;;;;;5454067;26;19936;-76
2024/04/14 07:19:40;;;;;;;;;;;17.40;99.90;;;;;;5450644;26;19940;-75
2024/04/14 07:22:05;;;;;;;;;;;17.40;99.90;;;;;;5453731;26;20260;-75
2024/04/14 07:24:31;;;;;;;;;;;17.30;99.90;;;;;;5449867;26;19935;-75
2024/04/14 07:26:56;;;;;;;;;;;17.60;99.90;;;;;;5453274;26;19936;-76
2024/04/14 07:29:22;;;;;;;;;;;17.80;99.90;;;;;;5453572;26;20007;-75
2024/04/14 07:31:47;;;;;;;;;;;17.90;99.90;;;;;;5450843;26;19928;-76
2024/04/14 07:34:13;;;;;;;;;;;18.00;99.90;;;;;;5452842;26;20337;-77
2024/04/14 07:36:39;;;;;;;;;;;18.30;99.90;;;;;;5450130;26;19928;-75
2024/04/14 07:39:04;;;;;;;;;;;18.40;99.90;;;;;;5450510;26;19997;-76
2024/04/14 07:41:30;;;;;;;;;;;18.50;99.90;;;;;;5464736;26;19928;-75
2024/04/14 07:43:56;;;;;;;;;;;18.40;99.90;;;;;;5432585;26;20268;-76
2024/04/14 07:46:25;;;;;;;;;;;18.30;99.90;;;;;;5425394;26;19937;-75
2024/04/14 07:48:51;;;;;;;;;;;18.20;99.90;;;;;;5422875;26;19937;-75
2024/04/14 07:51:17;;;;;;;;;;;18.20;99.90;;;;;;5438354;26;19936;-76
2024/04/14 07:53:42;;;;;;;;;;;18.30;99.90;;;;;;5448081;26;19992;-75
2024/04/14 07:56:08;;;;;;;;;;;18.40;99.90;;;;;;5445502;26;19928;-75
2024/04/14 07:58:33;;;;;;;;;;;18.60;99.90;;;;;;5427623;26;19929;-76
2024/04/14 08:00:59;;;;;;;;;;;18.70;99.90;;;;;;5452928;26;19986;-76
2024/04/14 08:03:24;;;;;;;;;;;18.90;99.90;;;;;;5451911;26;19929;-75
2024/04/14 08:05:50;;;;;;;;;;;18.90;99.90;;;;;;5440022;26;20055;-76
2024/04/14 08:08:15;;;;;;;;;;;19.10;99.90;;;;;;5452207;26;19929;-77
2024/04/14 08:10:41;;;;;;;;;;;19.20;99.90;;;;;;5453272;26;19940;-76
2024/04/14 08:13:06;;;;;;;;;;;19.20;99.90;;;;;;5452408;26;19929;-75
2024/04/14 08:15:32;;;;;;;;;;;19.40;99.90;;;;;;5451666;26;19933;-76
2024/04/14 08:17:58;;;;;;;;;;;19.90;99.90;;;;;;5453458;26;19940;-76
2024/04/14 08:20:24;;;;;;;;;;;20.10;99.90;;;;;;5429295;26;19929;-76
2024/04/14 08:22:49;;;;;;;;;;;20.30;99.90;;;;;;5456818;26;19928;-77
2024/04/14 08:25:15;;;;;;;;;;;20.70;99.90;;;;;;5452781;26;19936;-77
2024/04/14 08:27:41;;;;;;;;;;;21.20;99.90;;;;;;5446145;26;19941;-76
2024/04/14 08:30:15;;;;;;;;;;;22.20;99.90;;;;;;5453728;26;19929;-78
2024/04/14 08:32:41;;;;;;;;;;;23.70;99.00;;;;;;5452534;26;19929;-77
2024/04/14 08:35:07;;;;;;;;;;;24.50;97.20;;;;;;5473154;26;20527;-77
2024/04/14 08:37:32;;;;;;;;;;;24.20;96.40;;;;;;5451469;26;19929;-77
2024/04/14 08:39:58;;;;;;;;;;;23.70;96.40;;;;;;5453147;26;20286;-77
2024/04/14 08:42:24;;;;;;;;;;;23.10;96.80;;;;;;5455041;26;19929;-77
2024/04/14 08:44:51;;;;;;;;;;;22.50;97.80;;;;;;5453598;26;20407;-78
2024/04/14 08:47:17;;;;;;;;;;;22.10;98.20;;;;;;5455321;26;19997;-77
2024/04/14 08:49:43;;;;;;;;;;;21.70;98.70;;;;;;5453953;26;19997;-77
2024/04/14 08:52:08;;;;;;;;;;;21.50;98.80;;;;;;5451412;26;19940;-77
2024/04/14 08:54:34;;;;;;;;;;;21.40;98.50;;;;;;5428861;26;20002;-76
2024/04/14 08:57:01;;;;;;;;;;;21.20;98.30;;;;;;5453737;26;19928;-77
2024/04/14 08:59:26;;;;;;;;;;;21.20;98.60;;;;;;5429497;26;19932;-77
2024/04/14 09:01:52;;;;;;;;;;;21.30;98.60;;;;;;5451251;26;19936;-79
2024/04/14 09:04:18;;;;;;;;;;;21.40;98.60;;;;;;5450795;26;20005;-77
2024/04/14 09:06:44;;;;;;;;;;;21.50;97.70;;;;;;5452751;26;19928;-78
2024/04/14 09:09:11;;;;;;;;;;;21.90;98.10;;;;;;5449164;26;20434;-77
2024/04/14 09:11:36;;;;;;;;;;;22.00;97.60;;;;;;5461008;26;19928;-77
2024/04/14 09:14:02;;;;;;;;;;;22.10;97.50;;;;;;5468752;26;20430;-76
2024/04/14 09:16:28;;;;;;;;;;;22.30;97.00;;;;;;5455846;26;20647;-77
2024/04/14 09:18:53;;;;;;;;;;;22.60;96.50;;;;;;5452125;26;19929;-77
2024/04/14 09:21:19;;;;;;;;;;;22.70;96.50;;;;;;5450898;26;19952;-77
2024/04/14 09:23:44;;;;;;;;;;;22.70;96.10;;;;;;5452387;26;20450;-78
2024/04/14 09:26:10;;;;;;;;;;;22.60;96.30;;;;;;5452235;26;19998;-78
2024/04/14 09:28:35;;;;;;;;;;;22.50;96.40;;;;;;5460909;26;19936;-75
2024/04/14 09:31:01;;;;;;;;;;;22.50;96.60;;;;;;5449569;26;19928;-75
2024/04/14 09:33:26;;;;;;;;;;;22.40;96.50;;;;;;5470108;26;19928;-75
2024/04/14 09:35:52;;;;;;;;;;;22.20;96.60;;;;;;5450688;26;19928;-74
2024/04/14 09:38:18;;;;;;;;;;;22.00;97.00;;;;;;5451914;26;19936;-75
2024/04/14 09:40:43;;;;;;;;;;;21.80;96.90;;;;;;5449721;26;19935;-74
2024/04/14 09:43:09;;;;;;;;;;;22.00;96.80;;;;;;5450571;26;20295;-74
2024/04/14 09:45:36;;;;;;;;;;;21.90;96.50;;;;;;5452075;26;19928;-75
2024/04/14 09:48:02;;;;;;;;;;;21.90;96.60;;;;;;5456676;26;19935;-75
2024/04/14 09:50:29;;;;;;;;;;;21.90;96.50;;;;;;5451463;26;20387;-75
2024/04/14 09:52:55;;;;;;;;;;;21.80;96.70;;;;;;5451155;26;19935;-74
2024/04/14 09:55:21;;;;;;;;;;;21.90;96.50;;;;;;5450928;26;19937;-75
2024/04/14 09:57:48;;;;;;;;;;;22.20;96.00;;;;;;5450285;26;19977;-75
2024/04/14 10:00:14;;;;;;;;;;;22.40;95.30;;;;;;5452603;26;19928;-75
2024/04/14 10:02:43;;;;;;;;;;;22.40;93.80;;;;;;5429275;26;20360;-75
2024/04/14 10:05:09;;;;;;;;;;;22.50;93.60;;;;;;5451538;26;19956;-75
2024/04/14 10:07:38;;;;;;;;;;;22.70;93.10;;;;;;5451229;26;19956;-75
2024/04/14 10:10:05;;;;;;;;;;;22.80;93.40;;;;;;5449291;26;20064;-75
2024/04/14 10:12:34;;;;;;;;;;;23.00;92.90;;;;;;5451627;26;19929;-75
2024/04/14 10:15:03;;;;;;;;;;;23.00;92.90;;;;;;5427534;26;19938;-75
2024/04/14 10:17:29;;;;;;;;;;;22.90;93.30;;;;;;5450502;26;19929;-75
2024/04/14 10:20:00;;;;;;;;;;;22.70;93.60;;;;;;5451533;26;19929;-75
2024/04/14 10:22:55;;;;;;;;;;;22.50;93.60;;;;;;5451781;26;19977;-72
2024/04/14 10:25:22;;;;;;;;;;;22.30;94.10;;;;;;5426612;26;19929;-74
2024/04/14 10:27:48;;;;;;;;;;;22.20;94.30;;;;;;5448076;26;19935;-75
2024/04/14 10:30:21;;;;;;;;;;;22.10;94.60;;;;;;5451307;26;19935;-74
2024/04/14 10:32:47;;;;;;;;;;;22.20;94.90;;;;;;5449481;26;19935;-73
2024/04/14 10:35:16;;;;;;;;;;;22.30;94.70;;;;;;5449217;26;19928;-75
2024/04/14 10:37:51;;;;;;;;;;;22.40;93.90;;;;;;5452940;26;19929;-75
2024/04/14 10:40:17;;;;;;;;;;;22.40;94.30;;;;;;5451978;26;19936;-74
2024/04/14 10:42:43;;;;;;;;;;;22.50;94.50;;;;;;5452093;26;19936;-75
2024/04/14 10:45:08;;;;;;;;;;;22.40;94.80;;;;;;5453066;26;19928;-75
2024/04/14 10:47:34;;;;;;;;;;;22.30;94.50;;;;;;5455930;26;20376;-75
2024/04/14 10:49:59;;;;;;;;;;;22.30;94.50;;;;;;5454263;26;19935;-74
2024/04/14 10:52:25;;;;;;;;;;;22.20;93.60;;;;;;5452333;26;19936;-73
2024/04/14 10:54:50;;;;;;;;;;;22.20;94.10;;;;;;5459328;26;19961;-75
2024/04/14 10:57:16;;;;;;;;;;;22.10;94.20;;;;;;5454263;26;20290;-76
2024/04/14 10:59:41;;;;;;;;;;;21.90;94.20;;;;;;5453418;26;20356;-76
2024/04/14 11:02:07;;;;;;;;;;;21.70;94.60;;;;;;5455324;26;19929;-74
2024/04/14 11:04:33;;;;;;;;;;;21.60;95.00;;;;;;5443326;26;20376;-76
2024/04/14 11:07:00;;;;;;;;;;;21.50;94.70;;;;;;5450589;26;19928;-74
2024/04/14 11:09:26;;;;;;;;;;;21.50;95.00;;;;;;5444736;26;19994;-74
2024/04/14 11:11:51;;;;;;;;;;;21.50;95.20;;;;;;5452934;26;19936;-75
2024/04/14 11:14:21;;;;;;;;;;;21.60;94.90;;;;;;5464690;26;19929;-75
2024/04/14 11:16:49;;;;;;;;;;;21.70;94.70;;;;;;5453929;26;19929;-74
2024/04/14 11:19:15;;;;;;;;;;;22.00;94.70;;;;;;5468536;26;19935;-75
2024/04/14 11:21:40;;;;;;;;;;;21.80;94.50;;;;;;5454197;26;19929;-74
2024/04/14 11:24:09;;;;;;;;;;;21.70;94.30;;;;;;5468903;26;20367;-74
2024/04/14 11:26:34;;;;;;;;;;;21.50;94.30;;;;;;5454535;26;19935;-75
2024/04/14 11:29:00;;;;;;;;;;;21.20;94.50;;;;;;5453885;26;19929;-75
2024/04/14 11:31:26;;;;;;;;;;;21.30;95.20;;;;;;5472167;26;20279;-74
2024/04/14 11:33:52;;;;;;;;;;;21.20;95.20;;;;;;5460760;26;19929;-75
2024/04/14 11:36:18;;;;;;;;;;;21.20;94.70;;;;;;5464494;26;19935;-75
2024/04/14 11:38:46;;;;;;;;;;;21.10;94.70;;;;;;5452486;26;20276;-74
2024/04/14 11:41:12;;;;;;;;;;;20.90;94.90;;;;;;5450804;26;20451;-77
2024/04/14 11:43:37;;;;;;;;;;;20.80;95.10;;;;;;5456065;26;19932;-76
2024/04/14 11:46:03;;;;;;;;;;;20.70;95.20;;;;;;5477255;26;19939;-76
2024/04/14 11:48:28;;;;;;;;;;;20.70;94.80;;;;;;5455526;26;19933;-76
2024/04/14 11:50:54;;;;;;;;;;;20.70;94.90;;;;;;5445034;26;20292;-75
2024/04/14 11:53:19;;;;;;;;;;;20.60;94.80;;;;;;5434362;26;19936;-75
2024/04/14 11:55:45;;;;;;;;;;;20.60;94.60;;;;;;5451032;26;19928;-76
2024/04/14 11:58:12;;;;;;;;;;;20.50;94.30;;;;;;5438617;26;19941;-76
2024/04/14 12:00:41;;;;;;;;;;;20.40;94.80;;;;;;5446491;26;20345;-73
2024/04/14 12:03:06;;;;;;;;;;;20.40;94.70;;;;;;5455343;26;19935;-74
2024/04/14 12:05:32;;;;;;;;;;;20.30;94.40;;;;;;5452884;26;19983;-74
2024/04/14 12:07:58;;;;;;;;;;;20.30;94.60;;;;;;5457264;26;19961;-74
2024/04/14 12:10:24;;;;;;;;;;;20.30;95.00;;;;;;5436314;26;19928;-73
2024/04/14 12:12:50;;;;;;;;;;;20.20;94.90;;;;;;5443222;26;20434;-74
2024/04/14 12:15:15;;;;;;;;;;;20.30;95.30;;;;;;5454199;26;20374;-74
2024/04/14 12:17:41;;;;;;;;;;;20.40;95.30;;;;;;5465581;26;19928;-75
2024/04/14 12:20:07;;;;;;;;;;;20.30;94.70;;;;;;5453372;26;19992;-74
2024/04/14 12:22:32;;;;;;;;;;;20.20;94.60;;;;;;5452929;26;19974;-74
2024/04/14 12:24:58;;;;;;;;;;;20.20;93.90;;;;;;5465507;26;19955;-72
2024/04/14 12:27:23;;;;;;;;;;;20.10;93.60;;;;;;5428293;26;20001;-74
2024/04/14 12:29:49;;;;;;;;;;;20.10;93.60;;;;;;5433201;26;20006;-75
2024/04/14 12:32:14;;;;;;;;;;;20.20;93.30;;;;;;5438992;26;20253;-74
2024/04/14 12:34:40;;;;;;;;;;;20.40;93.00;;;;;;5452511;26;19933;-74
2024/04/14 12:37:05;;;;;;;;;;;20.40;92.70;;;;;;5472504;26;20391;-74
2024/04/14 12:39:31;;;;;;;;;;;20.60;93.40;;;;;;5451485;26;19928;-74
2024/04/14 12:41:57;;;;;;;;;;;20.80;93.00;;;;;;5452527;26;19936;-74
2024/04/14 12:44:22;;;;;;;;;;;21.00;92.30;;;;;;5445468;26;20270;-74
2024/04/14 12:46:48;;;;;;;;;;;21.10;92.40;;;;;;5452260;26;19928;-74
2024/04/14 12:49:18;;;;;;;;;;;21.10;92.40;;;;;;5451257;26;20005;-74
2024/04/14 12:51:44;;;;;;;;;;;21.20;92.30;;;;;;5450844;26;19958;-74
2024/04/14 12:54:09;;;;;;;;;;;21.20;92.40;;;;;;5450840;26;20292;-74
2024/04/14 12:56:35;;;;;;;;;;;21.20;92.40;;;;;;5450190;26;20261;-74
2024/04/14 12:59:00;;;;;;;;;;;21.20;92.70;;;;;;5452193;26;19936;-73
2024/04/14 13:01:26;;;;;;;;;;;21.10;92.70;;;;;;5450023;26;19928;-74
2024/04/14 13:03:51;;;;;;;;;;;20.90;92.70;;;;;;5451625;26;20271;-74
2024/04/14 13:06:17;;;;;;;;;;;20.80;93.30;;;;;;5452526;26;19935;-74
2024/04/14 13:08:42;;;;;;;;;;;20.80;93.20;;;;;;5449683;26;19940;-75
2024/04/14 13:11:07;;;;;;;;;;;21.10;92.80;;;;;;5452454;26;19935;-73
2024/04/14 13:13:34;;;;;;;;;;;20.90;92.30;;;;;;5449160;26;19936;-73
2024/04/14 13:16:01;;;;;;;;;;;20.70;92.70;;;;;;5446268;26;19936;-73
2024/04/14 13:18:26;;;;;;;;;;;20.90;91.70;;;;;;5444669;26;19937;-74
2024/04/14 13:20:52;;;;;;;;;;;20.80;92.10;;;;;;5449195;26;19928;-75
2024/04/14 13:23:20;;;;;;;;;;;20.90;92.10;;;;;;5449448;26;19928;-73
2024/04/14 13:25:46;;;;;;;;;;;21.00;92.10;;;;;;5444393;26;19937;-74
2024/04/14 13:28:12;;;;;;;;;;;21.10;91.60;;;;;;5444228;26;20386;-74
2024/04/14 13:30:37;;;;;;;;;;;21.10;91.20;;;;;;5450878;26;19936;-75
2024/04/14 13:33:03;;;;;;;;;;;21.10;91.20;;;;;;5449676;26;19928;-74
2024/04/14 13:35:28;;;;;;;;;;;20.90;91.30;;;;;;5449177;26;19929;-74
2024/04/14 13:37:54;;;;;;;;;;;21.00;91.50;;;;;;5449457;26;20396;-73
2024/04/14 13:40:19;;;;;;;;;;;21.00;91.40;;;;;;5449508;26;19964;-76
2024/04/14 13:42:45;;;;;;;;;;;21.00;91.70;;;;;;5452290;26;19928;-73
2024/04/14 13:45:10;;;;;;;;;;;20.90;91.70;;;;;;5451818;26;19965;-73
2024/04/14 13:47:36;;;;;;;;;;;20.70;91.30;;;;;;5450164;26;19943;-73
2024/04/14 13:50:01;;;;;;;;;;;20.70;90.80;;;;;;5451269;26;19929;-72
2024/04/14 13:52:28;;;;;;;;;;;20.70;91.00;;;;;;5448412;26;20275;-74
2024/04/14 13:54:55;;;;;;;;;;;20.60;90.40;;;;;;5451304;26;19935;-72
2024/04/14 13:57:21;;;;;;;;;;;20.50;90.90;;;;;;5450756;26;19939;-72
2024/04/14 13:59:47;;;;;;;;;;;20.40;91.00;;;;;;5452034;26;19940;-72
2024/04/14 14:02:12;;;;;;;;;;;20.60;90.70;;;;;;5452434;26;20332;-74
2024/04/14 14:04:38;;;;;;;;;;;20.70;90.80;;;;;;5455592;26;19928;-72
2024/04/14 14:07:03;;;;;;;;;;;20.70;90.70;;;;;;5486982;26;19939;-73
2024/04/14 14:09:30;;;;;;;;;;;20.90;90.00;;;;;;5452587;26;19998;-73